Time;durP1;ratioP1;P1;durP2;ratioP2;P2;SDS_P1;SDS_P2;PMS_P1;PMS_P2;Temp;Humidity;BMP_temperature;BMP_pressure;BME280_temperature;BME280_humidity;BME280_pressure;Samples;Min_cycle;Max_cycle;Signal;HPM_P1;HPM_P2
2022/05/14 00:01:26;;;;;;;12.50;7.30;;;;;;;;;;4937836;29;20031;-71
2022/05/14 00:03:51;;;;;;;11.02;6.85;;;20.50;99.90;;;;;;4937803;29;20031;-71
2022/05/14 00:06:23;;;;;;;15.88;6.88;;;20.50;99.90;;;;;;4937727;29;20114;-71
2022/05/14 00:08:49;;;;;;;9.93;7.60;;;20.50;99.90;;;;;;4937773;29;20373;-72
2022/05/14 00:14:03;;;;;;;14.25;7.00;;;20.50;99.90;;;;;;4937651;29;20038;-72
2022/05/14 00:16:31;;;;;;;17.95;7.22;;;20.30;99.90;;;;;;4952388;29;20394;-70
2022/05/14 00:18:57;;;;;;;10.15;6.95;;;20.20;99.90;;;;;;4937608;29;20028;-70
2022/05/14 00:21:24;;;;;;;14.57;7.05;;;20.10;99.90;;;;;;4936197;29;20038;-73
2022/05/14 00:23:50;;;;;;;9.13;7.07;;;20.00;99.90;;;;;;4937477;29;20507;-72
2022/05/14 00:26:17;;;;;;;13.02;7.10;;;20.00;99.90;;;;;;4936799;29;20422;-74
2022/05/14 00:28:42;;;;;;;10.93;7.72;;;20.10;99.90;;;;;;4937657;29;20032;-72
2022/05/14 00:31:09;;;;;;;20.45;7.80;;;20.10;99.90;;;;;;4936884;29;20499;-73
2022/05/14 00:33:36;;;;;;;11.02;7.13;;;20.00;99.90;;;;;;4936933;29;20055;-72
2022/05/14 00:36:02;;;;;;;12.65;6.93;;;20.00;99.90;;;;;;4935885;29;20544;-72
2022/05/14 00:38:30;;;;;;;13.80;7.10;;;19.90;99.90;;;;;;4937255;29;20035;-72
2022/05/14 00:40:58;;;;;;;10.43;7.13;;;19.90;99.90;;;;;;4936722;29;20039;-72
2022/05/14 00:43:25;;;;;;;10.55;7.20;;;19.90;99.90;;;;;;4935625;29;20054;-72
2022/05/14 00:45:55;;;;;;;9.02;6.63;;;19.90;99.90;;;;;;4937035;29;20050;-72
2022/05/14 00:48:23;;;;;;;11.73;6.97;;;19.80;99.90;;;;;;4936976;29;20036;-71
2022/05/14 00:50:55;;;;;;;12.68;7.80;;;19.80;99.90;;;;;;4936900;29;20066;-71
2022/05/14 00:53:32;;;;;;;7.53;6.50;;;19.80;99.90;;;;;;4935663;29;20027;-72
2022/05/14 00:56:03;;;;;;;8.38;7.22;;;19.80;99.90;;;;;;4936914;29;20039;-71
2022/05/14 00:58:50;;;;;;;10.70;7.50;;;19.70;99.90;;;;;;4936860;29;20079;-72
2022/05/14 01:01:16;;;;;;;9.23;7.47;;;19.80;99.90;;;;;;4936807;29;20044;-72
2022/05/14 01:03:42;;;;;;;9.77;7.65;;;19.70;99.90;;;;;;4935431;29;20059;-71
2022/05/14 01:06:14;;;;;;;10.88;8.00;;;19.60;99.90;;;;;;4936606;29;20106;-71
2022/05/14 01:08:42;;;;;;;19.85;8.85;;;19.50;99.90;;;;;;4935468;29;20054;-72
2022/05/14 01:11:08;;;;;;;13.57;8.38;;;19.50;99.90;;;;;;4936627;29;20039;-72
2022/05/14 01:13:34;;;;;;;11.85;8.30;;;19.50;99.90;;;;;;4936780;29;20118;-72
2022/05/14 01:16:02;;;;;;;10.70;8.75;;;19.50;99.90;;;;;;4936509;29;20110;-72
2022/05/14 01:18:31;;;;;;;11.20;8.65;;;19.50;99.90;;;;;;4936812;29;20035;-73
2022/05/14 01:21:01;;;;;;;12.00;8.20;;;19.50;99.90;;;;;;4936499;29;20035;-72
2022/05/14 01:26:27;;;;;;;9.50;7.78;;;19.50;99.90;;;;;;4936359;29;20047;-72
2022/05/14 01:26:27;;;;;;;10.90;8.65;;;19.40;99.90;;;;;;4935965;29;20047;-73
2022/05/14 01:29:02;;;;;;;15.73;8.43;;;19.40;99.90;;;;;;4936433;29;20027;-73
2022/05/14 01:31:29;;;;;;;13.02;9.75;;;19.40;99.90;;;;;;4936216;29;20031;-72
2022/05/14 01:33:58;;;;;;;17.42;9.07;;;19.40;99.90;;;;;;4935866;29;20135;-71
2022/05/14 01:36:24;;;;;;;15.88;9.30;;;19.30;99.90;;;;;;4936465;29;20028;-71
2022/05/14 01:38:50;;;;;;;12.25;8.05;;;19.30;99.90;;;;;;4935873;29;20035;-70
2022/05/14 01:41:16;;;;;;;12.93;8.57;;;19.30;99.90;;;;;;4936046;29;20031;-69
2022/05/14 01:43:42;;;;;;;22.35;9.45;;;19.40;99.90;;;;;;4936375;29;20051;-69
2022/05/14 01:46:08;;;;;;;17.73;8.98;;;19.30;99.90;;;;;;4936015;29;20036;-72
2022/05/14 01:48:34;;;;;;;14.13;8.85;;;19.30;99.90;;;;;;4934736;29;20052;-71
2022/05/14 01:51:00;;;;;;;14.35;9.38;;;19.30;99.90;;;;;;4935966;29;20122;-72
2022/05/14 01:53:26;;;;;;;12.00;7.88;;;19.20;99.90;;;;;;4935972;29;20028;-72
2022/05/14 01:55:52;;;;;;;12.45;8.13;;;19.20;99.90;;;;;;4935956;29;20377;-71
2022/05/14 01:58:36;;;;;;;14.30;7.63;;;19.20;99.90;;;;;;4935885;29;20031;-71
2022/05/14 02:01:14;;;;;;;8.23;6.88;;;19.20;99.90;;;;;;4935933;29;20034;-71
2022/05/14 02:03:49;;;;;;;14.65;6.80;;;19.30;99.90;;;;;;4935926;29;20036;-69
2022/05/14 02:06:16;;;;;;;14.32;6.47;;;19.30;99.90;;;;;;4934949;29;20032;-69
2022/05/14 02:08:42;;;;;;;9.63;6.60;;;19.30;99.90;;;;;;4935739;29;20115;-69
2022/05/14 02:11:08;;;;;;;9.15;7.53;;;19.20;99.90;;;;;;4934429;29;20040;-69
2022/05/14 02:13:36;;;;;;;10.60;7.53;;;19.20;99.90;;;;;;4936041;29;20028;-71
2022/05/14 02:16:03;;;;;;;9.05;7.53;;;19.10;99.90;;;;;;4950363;29;20043;-71
2022/05/14 02:18:29;;;;;;;7.90;6.90;;;19.10;99.90;;;;;;4935538;29;20119;-71
2022/05/14 02:20:55;;;;;;;9.93;7.43;;;19.10;99.90;;;;;;4935757;29;20126;-71
2022/05/14 02:23:22;;;;;;;12.02;8.00;;;19.10;99.90;;;;;;4935680;29;20083;-70
2022/05/14 02:25:48;;;;;;;10.13;7.22;;;19.10;99.90;;;;;;4935684;29;20038;-71
2022/05/14 02:28:15;;;;;;;11.18;7.05;;;19.10;99.90;;;;;;4935395;29;20400;-72
2022/05/14 02:30:41;;;;;;;14.38;7.30;;;19.00;99.90;;;;;;4934376;29;20038;-71
2022/05/14 02:33:07;;;;;;;12.75;6.80;;;19.00;99.90;;;;;;4950339;29;20027;-71
2022/05/14 02:35:33;;;;;;;10.10;7.40;;;18.90;99.90;;;;;;4935033;29;20079;-72
2022/05/14 02:37:59;;;;;;;9.50;7.38;;;19.00;99.90;;;;;;4935078;29;20086;-72
2022/05/14 02:40:25;;;;;;;8.68;7.20;;;19.00;99.90;;;;;;4935342;29;20032;-71
2022/05/14 02:42:52;;;;;;;7.60;6.80;;;19.00;99.90;;;;;;4935499;29;20059;-71
2022/05/14 02:45:18;;;;;;;9.45;7.40;;;19.00;99.90;;;;;;4934262;29;20043;-73
2022/05/14 02:47:44;;;;;;;11.52;7.60;;;19.00;99.90;;;;;;4935814;29;20020;-73
2022/05/14 02:50:10;;;;;;;8.75;6.72;;;19.10;99.90;;;;;;4935412;29;20039;-73
2022/05/14 02:52:35;;;;;;;10.60;6.93;;;19.10;99.90;;;;;;4934015;29;20043;-72
2022/05/14 02:55:02;;;;;;;9.57;6.65;;;19.10;99.90;;;;;;4935416;29;20035;-73
2022/05/14 02:57:28;;;;;;;7.75;5.60;;;19.20;99.90;;;;;;4935463;29;20032;-71
2022/05/14 02:59:54;;;;;;;15.13;5.95;;;19.20;99.90;;;;;;4935381;29;20424;-72
2022/05/14 03:02:20;;;;;;;8.95;5.50;;;19.30;99.90;;;;;;4935364;29;20036;-71
2022/05/14 03:04:48;;;;;;;11.65;5.90;;;19.40;99.90;;;;;;4936224;29;20040;-71
2022/05/14 03:07:17;;;;;;;11.70;5.97;;;19.40;99.90;;;;;;4937498;29;20477;-70
2022/05/14 03:09:43;;;;;;;8.52;6.10;;;19.50;99.90;;;;;;4953606;29;20063;-70
2022/05/14 03:12:11;;;;;;;7.22;6.38;;;19.50;99.90;;;;;;4938738;29;20048;-70
2022/05/14 03:14:38;;;;;;;9.45;5.28;;;19.50;99.90;;;;;;4953347;29;20469;-71
2022/05/14 03:17:05;;;;;;;8.93;5.47;;;19.50;99.90;;;;;;4938667;29;20484;-70
2022/05/14 03:19:31;;;;;;;6.97;5.60;;;19.60;99.90;;;;;;4937414;29;20031;-70
2022/05/14 03:21:57;;;;;;;12.73;5.60;;;19.50;99.90;;;;;;4938894;29;20114;-70
2022/05/14 03:24:23;;;;;;;14.40;5.10;;;19.50;99.90;;;;;;4938566;29;20469;-72
2022/05/14 03:26:50;;;;;;;10.23;5.65;;;19.50;99.90;;;;;;4938512;29;20122;-72
2022/05/14 03:29:16;;;;;;;15.15;5.13;;;19.50;99.90;;;;;;4938744;29;20044;-72
2022/05/14 03:31:42;;;;;;;11.90;5.50;;;19.50;99.90;;;;;;4938323;29;20048;-68
2022/05/14 03:34:10;;;;;;;12.15;5.57;;;19.60;99.90;;;;;;4938445;29;20556;-67
2022/05/14 03:36:40;;;;;;;12.40;5.60;;;19.60;99.90;;;;;;4938353;29;20099;-69
2022/05/14 03:39:06;;;;;;;8.82;5.72;;;19.70;99.90;;;;;;4938311;29;20035;-69
2022/05/14 03:41:33;;;;;;;10.50;5.72;;;19.60;99.90;;;;;;4938215;29;20036;-69
2022/05/14 03:43:59;;;;;;;6.63;5.28;;;19.60;99.90;;;;;;4938191;29;20028;-69
2022/05/14 03:46:24;;;;;;;12.23;5.55;;;19.60;99.90;;;;;;4936836;29;20107;-69
2022/05/14 03:48:50;;;;;;;13.50;6.10;;;19.60;99.90;;;;;;4937892;29;20433;-68
2022/05/14 03:51:16;;;;;;;11.13;5.53;;;19.60;99.90;;;;;;4937976;29;20094;-69
2022/05/14 03:53:42;;;;;;;7.43;5.35;;;19.70;99.90;;;;;;4938267;29;20086;-69
2022/05/14 03:56:09;;;;;;;10.10;6.10;;;19.70;99.90;;;;;;4938185;29;20354;-70
2022/05/14 03:58:35;;;;;;;10.85;6.10;;;19.70;99.90;;;;;;4936666;29;20024;-70
2022/05/14 04:01:03;;;;;;;9.77;5.47;;;19.70;99.90;;;;;;4937850;29;20031;-68
2022/05/14 04:03:29;;;;;;;9.35;5.85;;;19.70;99.90;;;;;;4938122;29;20086;-70
2022/05/14 04:05:55;;;;;;;7.93;5.10;;;19.80;99.90;;;;;;4937803;29;20536;-69
2022/05/14 04:08:21;;;;;;;14.52;4.90;;;19.90;99.90;;;;;;4936450;29;20152;-68
2022/05/14 04:10:46;;;;;;;8.88;4.72;;;19.90;99.90;;;;;;4937565;29;20124;-68
2022/05/14 04:13:12;;;;;;;9.40;4.95;;;19.90;99.90;;;;;;4937861;29;20031;-67
2022/05/14 04:15:39;;;;;;;7.15;4.70;;;20.00;99.90;;;;;;4937249;29;20040;-70
2022/05/14 04:18:05;;;;;;;11.38;5.25;;;20.10;99.90;;;;;;4937014;29;20087;-69
2022/05/14 04:20:32;;;;;;;5.22;3.88;;;20.20;99.90;;;;;;4936230;29;20032;-66
2022/05/14 04:22:58;;;;;;;9.10;4.47;;;20.20;99.90;;;;;;4937288;29;20381;-65
2022/05/14 04:25:24;;;;;;;7.85;3.92;;;20.20;99.90;;;;;;4937671;29;20605;-65
2022/05/14 04:27:50;;;;;;;4.05;3.63;;;20.30;99.90;;;;;;4937643;29;20064;-67
2022/05/14 04:30:17;;;;;;;3.50;3.20;;;20.30;99.90;;;;;;4937371;29;20028;-67
2022/05/14 04:32:44;;;;;;;13.13;4.20;;;20.30;99.90;;;;;;4935898;29;20520;-68
2022/05/14 04:35:12;;;;;;;81.93;7.93;;;20.30;99.90;;;;;;4935473;29;20080;-68
2022/05/14 04:37:38;;;;;;;16.35;4.18;;;20.40;99.90;;;;;;4951608;29;20039;-69
2022/05/14 04:40:06;;;;;;;6.38;3.83;;;20.40;99.90;;;;;;4935837;29;20028;-69
2022/05/14 04:42:31;;;;;;;6.18;4.00;;;20.40;99.90;;;;;;4935772;29;20035;-68
2022/05/14 04:44:57;;;;;;;4.80;4.10;;;20.40;99.90;;;;;;4935728;29;20036;-68
2022/05/14 04:47:24;;;;;;;10.25;4.55;;;20.40;99.90;;;;;;4936961;29;20023;-67
2022/05/14 04:49:50;;;;;;;7.30;5.22;;;20.30;99.90;;;;;;4936995;29;20039;-66
2022/05/14 04:52:16;;;;;;;6.68;5.25;;;20.30;99.90;;;;;;4936815;29;20091;-66
2022/05/14 04:54:41;;;;;;;11.05;5.97;;;20.30;99.90;;;;;;4936895;29;20033;-67
2022/05/14 04:57:08;;;;;;;11.57;6.88;;;20.30;99.90;;;;;;4936783;29;20489;-67
2022/05/14 04:59:34;;;;;;;12.77;6.63;;;20.20;99.90;;;;;;4951538;29;20032;-67
2022/05/14 05:04:45;;;;;;;10.93;7.10;;;20.30;99.90;;;;;;4936489;29;20035;-67
2022/05/14 05:07:11;;;;;;;12.70;7.32;;;20.20;99.90;;;;;;4936645;29;20501;-66
2022/05/14 05:09:38;;;;;;;11.30;7.03;;;20.20;99.90;;;;;;4935292;29;20031;-68
2022/05/14 05:12:04;;;;;;;14.85;7.05;;;20.20;99.90;;;;;;4936494;29;20044;-69
2022/05/14 05:14:30;;;;;;;13.45;7.13;;;20.20;99.90;;;;;;4936693;29;20032;-69
2022/05/14 05:16:57;;;;;;;9.50;6.50;;;20.20;99.90;;;;;;4936169;29;20441;-70
2022/05/14 05:19:24;;;;;;;9.52;6.65;;;20.20;99.90;;;;;;4936564;29;20035;-68
2022/05/14 05:21:50;;;;;;;9.15;6.50;;;20.30;99.90;;;;;;4935162;29;20058;-68
2022/05/14 05:24:16;;;;;;;8.18;6.18;;;20.30;99.90;;;;;;4934919;29;20031;-69
2022/05/14 05:26:42;;;;;;;13.25;7.05;;;20.40;99.90;;;;;;4936398;29;20031;-67
2022/05/14 05:29:08;;;;;;;10.70;6.85;;;20.30;99.90;;;;;;4935889;29;20102;-67
2022/05/14 05:31:35;;;;;;;9.85;6.25;;;20.40;99.90;;;;;;4934900;29;20039;-68
2022/05/14 05:34:02;;;;;;;12.38;6.57;;;20.40;99.90;;;;;;4936127;29;20051;-67
2022/05/14 05:36:29;;;;;;;7.38;5.55;;;;;;;;;;4929819;29;20032;-67
2022/05/14 05:38:55;;;;;;;10.88;6.07;;;20.50;99.90;;;;;;4926538;29;20433;-72
2022/05/14 05:41:21;;;;;;;8.35;5.85;;;20.50;99.90;;;;;;4933737;29;20087;-72
2022/05/14 05:43:48;;;;;;;9.75;6.55;;;20.50;99.90;;;;;;4933415;29;20031;-72
2022/05/14 05:46:14;;;;;;;14.88;6.20;;;20.60;99.90;;;;;;4934404;29;20065;-67
2022/05/14 05:48:41;;;;;;;7.28;5.90;;;20.60;99.90;;;;;;4935849;29;20024;-67
2022/05/14 05:51:08;;;;;;;7.80;5.15;;;20.60;99.90;;;;;;4935752;29;20445;-67
2022/05/14 05:59:05;;;;;;;12.45;5.70;;;20.60;99.90;;;;;;4935956;29;20121;-68
2022/05/14 06:01:31;;;;;;;9.93;5.38;;;20.60;99.90;;;;;;4928077;29;20036;-69
2022/05/14 06:03:57;;;;;;;9.55;5.38;;;20.50;99.90;;;;;;4934640;29;20040;-69
2022/05/14 06:06:23;;;;;;;9.68;5.35;;;20.40;99.90;;;;;;4935967;29;20111;-67
2022/05/14 06:08:50;;;;;;;14.95;5.63;;;20.40;99.90;;;;;;4935775;29;20377;-69
2022/05/14 06:11:17;;;;;;;14.23;5.72;;;20.50;99.90;;;;;;4935713;29;20095;-70
2022/05/14 06:13:43;;;;;;;11.27;5.35;;;20.60;99.90;;;;;;4935996;29;20032;-70
2022/05/14 06:16:12;;;;;;;6.18;5.13;;;;;;;;;;4935667;29;20067;-70
2022/05/14 06:18:39;;;;;;;9.20;5.18;;;20.60;99.90;;;;;;4935610;29;20480;-71
2022/05/14 06:21:05;;;;;;;8.18;5.20;;;20.70;99.90;;;;;;4935672;29;20031;-71
2022/05/14 06:23:32;;;;;;;10.20;5.35;;;20.80;99.90;;;;;;4934378;29;20361;-71
2022/05/14 06:25:58;;;;;;;6.72;4.72;;;21.10;99.90;;;;;;4935604;29;20544;-70
2022/05/14 06:28:25;;;;;;;9.45;4.70;;;21.40;99.90;;;;;;4933864;29;20036;-71
2022/05/14 06:30:51;;;;;;;8.60;5.05;;;21.40;99.90;;;;;;4935573;29;20023;-71
2022/05/14 06:33:18;;;;;;;11.10;4.78;;;21.40;99.90;;;;;;4934026;29;20028;-73
2022/05/14 06:35:45;;;;;;;10.20;4.80;;;21.20;99.90;;;;;;4935508;29;20544;-70
2022/05/14 06:38:11;;;;;;;12.15;4.75;;;21.30;99.90;;;;;;4935758;29;20090;-71
2022/05/14 06:40:37;;;;;;;7.88;4.63;;;21.20;99.90;;;;;;4936416;29;20766;-71
2022/05/14 06:43:03;;;;;;;6.90;4.10;;;21.30;99.90;;;;;;4938905;29;20058;-72
2022/05/14 06:45:30;;;;;;;10.52;5.00;;;21.40;99.90;;;;;;4935372;29;20032;-67
2022/05/14 06:47:56;;;;;;;7.88;4.38;;;21.50;99.90;;;;;;4919179;29;20064;-70
2022/05/14 06:50:23;;;;;;;15.43;5.03;;;21.40;99.90;;;;;;4920323;29;20474;-70
2022/05/14 06:52:54;;;;;;;10.60;4.40;;;21.60;99.90;;;;;;4918622;29;20043;-69
2022/05/14 06:55:22;;;;;;;10.10;4.15;;;21.50;99.90;;;;;;4920070;29;20028;-72
2022/05/14 06:57:50;;;;;;;8.38;4.05;;;;;;;;;;4919829;29;20465;-71
2022/05/14 07:00:17;;;;;;;8.07;4.35;;;21.80;99.90;;;;;;4918688;29;20430;-72
2022/05/14 07:02:45;;;;;;;11.30;4.68;;;21.90;99.90;;;;;;4919543;29;20032;-73
2022/05/14 07:07:55;;;;;;;6.35;4.40;;;21.90;99.90;;;;;;4919505;29;20115;-72
2022/05/14 07:10:22;;;;;;;5.30;4.35;;;;;;;;;;4918438;29;20031;-70
2022/05/14 07:12:49;;;;;;;6.35;4.40;;;;;;;;;;4919652;29;20036;-70
2022/05/14 07:15:15;;;;;;;12.13;4.60;;;21.70;99.90;;;;;;4919686;29;20123;-68
2022/05/14 07:17:41;;;;;;;7.82;4.70;;;21.40;99.90;;;;;;4918394;29;20036;-69
2022/05/14 07:20:08;;;;;;;7.38;4.05;;;21.20;99.90;;;;;;4919738;29;20066;-72
2022/05/14 07:22:34;;;;;;;8.60;4.57;;;21.10;99.90;;;;;;4916628;29;20099;-73
2022/05/14 07:25:00;;;;;;;8.88;4.70;;;21.80;99.90;;;;;;4934731;29;20023;-70
2022/05/14 07:27:26;;;;;;;6.50;4.47;;;21.80;99.90;;;;;;4936613;29;20051;-70
2022/05/14 07:29:52;;;;;;;8.05;4.45;;;21.90;99.90;;;;;;4936471;29;20070;-70
2022/05/14 07:32:19;;;;;;;7.18;4.65;;;21.90;99.90;;;;;;4937755;29;20040;-70
2022/05/14 07:34:45;;;;;;;4.93;4.00;;;22.20;99.90;;;;;;4937768;29;20052;-73
2022/05/14 07:37:29;;;;;;;5.20;4.13;;;22.30;99.90;;;;;;4937693;29;20028;-70
2022/05/14 07:40:02;;;;;;;7.85;4.32;;;22.40;99.90;;;;;;4937981;29;20063;-71
2022/05/14 07:42:41;;;;;;;7.13;4.35;;;22.70;99.90;;;;;;4937824;29;20477;-72
2022/05/14 07:45:10;;;;;;;9.10;4.85;;;22.70;99.90;;;;;;4938049;29;20458;-71
2022/05/14 07:47:38;;;;;;;9.38;3.85;;;22.70;99.90;;;;;;4920862;29;20071;-72
2022/05/14 07:50:06;;;;;;;24.67;4.75;;;23.00;99.90;;;;;;4918420;29;20390;-73
2022/05/14 07:52:32;;;;;;;6.28;4.10;;;23.10;99.90;;;;;;4918709;29;20046;-71
2022/05/14 07:54:57;;;;;;;8.23;4.75;;;23.10;99.90;;;;;;4917560;29;20024;-71
2022/05/14 07:57:23;;;;;;;8.40;4.22;;;23.10;99.90;;;;;;4918857;29;20469;-70
2022/05/14 07:59:49;;;;;;;13.90;4.85;;;23.10;99.90;;;;;;4916910;29;20028;-72
2022/05/14 08:02:26;;;;;;;9.35;4.18;;;23.10;99.90;;;;;;4917559;29;20036;-70
2022/05/14 08:04:52;;;;;;;7.10;3.97;;;23.30;99.90;;;;;;4918684;29;20036;-68
2022/05/14 08:07:18;;;;;;;5.38;3.95;;;23.40;99.90;;;;;;4917433;29;20036;-67
2022/05/14 08:09:44;;;;;;;9.25;4.22;;;23.70;99.90;;;;;;4917391;29;20484;-70
2022/05/14 08:12:11;;;;;;;7.68;3.95;;;23.60;99.90;;;;;;4918695;29;20040;-69
2022/05/14 08:14:39;;;;;;;7.93;3.65;;;23.50;99.90;;;;;;4917248;29;20036;-71
2022/05/14 08:17:10;;;;;;;6.15;3.58;;;23.30;99.90;;;;;;4918595;29;20024;-70
2022/05/14 08:19:36;;;;;;;11.20;4.27;;;23.10;99.90;;;;;;4918548;29;20040;-71
2022/05/14 08:24:47;;;;;;;8.63;4.30;;;23.30;99.90;;;;;;4916704;29;20083;-71
2022/05/14 08:27:13;;;;;;;5.32;3.95;;;23.70;99.90;;;;;;4917763;29;20032;-71
2022/05/14 08:29:39;;;;;;;4.60;3.35;;;24.00;99.90;;;;;;4918077;29;20028;-72
2022/05/14 08:32:06;;;;;;;7.35;3.60;;;;;;;;;;4917428;29;20032;-72
2022/05/14 08:34:32;;;;;;;7.90;3.85;;;24.10;99.90;;;;;;4916768;29;20422;-71
2022/05/14 08:36:58;;;;;;;9.02;3.80;;;24.40;99.90;;;;;;4918288;29;20487;-70
2022/05/14 08:39:27;;;;;;;5.05;3.20;;;24.50;99.90;;;;;;4918460;29;20031;-71
2022/05/14 08:41:55;;;;;;;5.07;2.97;;;24.60;99.90;;;;;;4918226;29;20035;-71
2022/05/14 08:44:28;;;;;;;5.15;3.40;;;24.70;99.90;;;;;;4916816;29;20118;-71
2022/05/14 08:46:57;;;;;;;9.38;4.28;;;24.60;99.90;;;;;;4917573;29;20381;-71
2022/05/14 08:49:44;;;;;;;9.38;3.88;;;24.70;99.90;;;;;;4917809;29;20035;-71
2022/05/14 08:52:11;;;;;;;6.90;3.60;;;;;;;;;;4915031;29;20068;-71
2022/05/14 08:54:37;;;;;;;6.97;3.97;;;;;;;;;;4917270;29;20028;-69
2022/05/14 08:57:44;;;;;;;5.63;3.28;;;25.20;99.90;;;;;;4917879;29;20035;-72
2022/05/14 09:00:10;;;;;;;7.22;3.42;;;25.20;99.90;;;;;;4897239;29;20545;-73
2022/05/14 09:02:37;;;;;;;5.90;3.08;;;25.40;99.90;;;;;;4915712;29;20130;-70
2022/05/14 09:05:23;;;;;;;4.28;3.22;;;25.40;99.90;;;;;;4916138;29;20032;-71
2022/05/14 09:07:50;;;;;;;3.70;2.70;;;25.40;99.90;;;;;;4917035;29;20779;-71
2022/05/14 09:10:54;;;;;;;4.57;2.80;;;25.70;99.90;;;;;;4916050;29;20028;-70
2022/05/14 09:13:22;;;;;;;5.82;3.10;;;25.80;99.90;;;;;;4917206;29;20036;-70
2022/05/14 09:15:59;;;;;;;5.47;3.35;;;25.80;99.90;;;;;;4917398;29;20083;-71
2022/05/14 09:18:33;;;;;;;5.28;2.70;;;26.00;99.90;;;;;;4917468;29;20501;-70
2022/05/14 09:21:06;;;;;;;9.32;3.40;;;26.10;99.90;;;;;;4915630;29;20032;-71
2022/05/14 09:23:39;;;;;;;3.83;3.15;;;;;;;;;;4917592;29;20119;-70
2022/05/14 09:26:14;;;;;;;6.03;3.45;;;;;;;;;;4917196;29;20020;-73
2022/05/14 09:28:50;;;;;;;12.18;3.45;;;26.20;99.90;;;;;;4917179;29;20063;-69
2022/05/14 09:31:36;;;;;;;9.35;3.13;;;26.50;98.90;;;;;;4917192;29;20055;-69
2022/05/14 09:34:18;;;;;;;6.45;2.75;;;26.50;98.10;;;;;;4917143;29;20576;-68
2022/05/14 09:36:48;;;;;;;5.32;2.50;;;26.40;98.00;;;;;;4935085;29;20032;-66
2022/05/14 09:39:20;;;;;;;5.72;2.72;;;26.80;99.90;;;;;;4934752;29;20028;-69
2022/05/14 09:41:56;;;;;;;3.75;2.78;;;26.70;97.00;;;;;;4935588;29;20031;-68
2022/05/14 09:44:46;;;;;;;3.65;2.70;;;27.00;97.90;;;;;;4924607;29;20031;-71
2022/05/14 09:47:14;;;;;;;7.55;3.15;;;27.00;96.20;;;;;;4921664;29;20490;-66
2022/05/14 09:49:52;;;;;;;5.15;2.70;;;27.50;98.50;;;;;;4915831;29;20470;-67
2022/05/14 09:52:24;;;;;;;7.03;2.70;;;27.40;98.70;;;;;;4914368;29;20040;-67
2022/05/14 09:54:52;;;;;;;7.20;2.85;;;27.50;95.20;;;;;;4915383;29;20385;-68
2022/05/14 09:57:55;;;;;;;4.18;2.20;;;27.50;94.70;;;;;;4916608;29;20028;-68
2022/05/14 10:00:31;;;;;;;8.80;2.97;;;27.70;94.20;;;;;;4858021;29;20220;-68
2022/05/14 10:03:15;;;;;;;11.00;2.90;;;27.70;93.70;;;;;;4858220;29;20141;-68
2022/05/14 10:06:11;;;;;;;7.93;2.83;;;27.70;92.80;;;;;;4858531;29;20048;-68
2022/05/14 10:08:41;;;;;;;4.40;2.83;;;27.70;93.10;;;;;;4858500;29;20041;-67
2022/05/14 10:11:15;;;;;;;6.57;2.80;;;27.80;94.70;;;;;;4858243;29;20054;-68
2022/05/14 10:14:02;;;;;;;5.97;2.90;;;28.20;94.40;;;;;;4858461;29;20030;-68
2022/05/14 10:16:58;;;;;;;2.83;2.25;;;28.30;91.90;;;;;;4862045;29;20056;-66
2022/05/14 10:19:43;;;;;;;6.53;2.45;;;;;;;;;;4862172;29;20069;-66
2022/05/14 10:26:44;;;;;;;5.97;3.10;;;28.50;90.80;;;;;;4862367;29;20053;-66
2022/05/14 10:28:46;;;;;;;6.32;2.85;;;28.60;90.30;;;;;;4862250;29;20044;-68
2022/05/14 10:31:18;;;;;;;3.63;2.50;;;29.10;89.10;;;;;;4861984;29;20227;-68
2022/05/14 10:33:47;;;;;;;6.10;3.03;;;30.20;85.60;;;;;;4861736;29;20110;-68
2022/05/14 10:36:23;;;;;;;4.40;2.42;;;30.40;84.30;;;;;;4899356;29;20048;-67
2022/05/14 10:38:56;;;;;;;8.82;2.80;;;;;;;;;;4920394;29;20028;-69
2022/05/14 10:41:40;;;;;;;9.30;2.67;;;;;;;;;;4920389;29;20035;-66
2022/05/14 10:44:11;;;;;;;5.45;2.78;;;29.30;86.30;;;;;;4920205;29;20051;-66
2022/05/14 10:46:40;;;;;;;5.05;2.30;;;27.40;88.10;;;;;;4920312;29;20470;-68
2022/05/14 10:49:12;;;;;;;4.45;2.22;;;;;;;;;;4920102;29;20118;-68
2022/05/14 10:51:43;;;;;;;7.57;2.08;;;;;;;;;;4920099;29;20393;-66
2022/05/14 10:54:13;;;;;;;8.20;2.30;;;;;;;;;;4920374;29;20036;-65
2022/05/14 10:56:56;;;;;;;5.55;2.58;;;29.00;74.60;;;;;;4920052;29;20494;-68
2022/05/14 10:59:49;;;;;;;11.70;2.35;;;30.30;74.10;;;;;;4920076;29;20028;-68
2022/05/14 11:02:23;;;;;;;5.32;1.92;;;31.50;73.80;;;;;;4917525;29;20084;-69
2022/05/14 11:04:51;;;;;;;12.30;2.88;;;32.20;71.40;;;;;;4919986;29;20032;-68
2022/05/14 11:07:38;;;;;;;6.07;2.00;;;32.20;67.90;;;;;;4919866;29;20020;-69
2022/05/14 11:10:27;;;;;;;2.90;1.92;;;32.60;69.50;;;;;;4919849;29;20028;-69
2022/05/14 11:12:54;;;;;;;2.72;1.95;;;33.10;68.10;;;;;;4919745;29;20087;-66
2022/05/14 11:15:25;;;;;;;8.65;2.50;;;;;;;;;;4919773;29;20028;-65
2022/05/14 11:18:04;;;;;;;8.82;3.22;;;34.10;95.70;;;;;;4919689;29;20034;-67
2022/05/14 11:20:29;;;;;;;5.40;2.55;;;33.30;62.30;;;;;;4919990;29;20040;-67
2022/05/14 11:23:04;;;;;;;7.15;2.50;;;32.40;64.50;;;;;;4918907;29;20366;-66
2022/05/14 11:25:31;;;;;;;7.50;2.60;;;;;;;;;;4918859;29;20028;-66
2022/05/14 11:28:18;;;;;;;3.75;2.03;;;33.70;63.90;;;;;;4919584;29;20035;-67
2022/05/14 11:30:44;;;;;;;3.72;2.20;;;;;;;;;;4918675;29;20032;-67
2022/05/14 11:33:28;;;;;;;7.63;2.28;;;32.80;61.50;;;;;;4919384;29;20036;-67
2022/05/14 11:36:00;;;;;;;8.13;1.80;;;32.40;61.40;;;;;;4919353;29;20107;-67
2022/05/14 11:38:26;;;;;;;6.13;1.80;;;33.20;76.60;;;;;;4919281;29;20032;-67
2022/05/14 11:41:00;;;;;;;5.43;1.88;;;33.10;64.00;;;;;;4919301;29;20028;-67
2022/05/14 11:43:29;;;;;;;7.20;2.30;;;;;;;;;;4919305;29;20064;-67
2022/05/14 11:46:10;;;;;;;3.22;1.92;;;;;;;;;;4919117;29;20102;-67
2022/05/14 11:48:43;;;;;;;9.93;2.22;;;29.30;66.00;;;;;;4919154;29;20039;-67
2022/05/14 11:51:17;;;;;;;4.05;1.80;;;29.20;65.90;;;;;;4919045;29;20036;-67
2022/05/14 11:53:58;;;;;;;5.65;2.15;;;30.60;64.30;;;;;;4919352;29;20100;-66
2022/05/14 11:56:58;;;;;;;4.53;2.38;;;29.80;63.30;;;;;;4919109;29;20416;-67
2022/05/14 11:59:39;;;;;;;5.95;1.98;;;29.50;64.30;;;;;;4911523;29;20388;-67
2022/05/14 12:02:07;;;;;;;24.05;3.50;;;;;;;;;;4919053;29;20040;-66
2022/05/14 12:04:40;;;;;;;7.63;3.10;;;33.50;60.70;;;;;;4919087;29;20028;-67
2022/05/14 12:07:25;;;;;;;3.13;1.60;;;33.20;59.10;;;;;;4918852;29;20115;-66
2022/05/14 12:10:10;;;;;;;6.30;2.00;;;;;;;;;;4918789;29;20059;-66
2022/05/14 12:12:42;;;;;;;3.45;2.40;;;;;;;;;;4918691;29;20115;-67
2022/05/14 12:15:11;;;;;;;7.18;1.77;;;34.90;57.20;;;;;;4918737;29;20088;-68
2022/05/14 12:17:38;;;;;;;7.63;2.40;;;35.50;54.60;;;;;;4918362;29;20036;-67
2022/05/14 12:20:04;;;;;;;1.95;1.73;;;36.00;56.20;;;;;;4918784;29;20115;-67
2022/05/14 12:22:30;;;;;;;25.80;3.22;;;36.00;55.00;;;;;;4918615;29;20024;-67
2022/05/14 12:25:07;;;;;;;17.17;2.83;;;35.40;53.40;;;;;;4918557;29;20036;-67
2022/05/14 12:27:43;;;;;;;2.13;1.92;;;36.20;52.50;;;;;;4918481;29;20413;-67
2022/05/14 12:30:12;;;;;;;5.03;1.63;;;33.70;54.00;;;;;;4917209;29;20028;-67
2022/05/14 12:35:30;;;;;;;1.55;1.38;;;35.20;54.70;;;;;;4918434;29;20062;-68
2022/05/14 12:37:57;;;;;;;5.25;2.55;;;;;;;;;;4917413;29;20143;-67
2022/05/14 12:40:26;;;;;;;4.88;1.60;;;;;;;;;;4918220;29;20066;-67
2022/05/14 12:42:52;;;;;;;1.75;1.40;;;;;;;;;;4918496;29;20040;-68
2022/05/14 12:45:18;;;;;;;7.13;1.70;;;;;;;;;;4918122;29;20488;-68
2022/05/14 12:47:46;;;;;;;7.00;2.13;;;;;;;;;;4918112;29;20039;-68
2022/05/14 12:50:26;;;;;;;4.15;1.50;;;36.20;53.30;;;;;;4918040;29;20104;-68
2022/05/14 12:52:56;;;;;;;4.47;1.50;;;;;;;;;;4918033;29;20426;-68
2022/05/14 12:55:24;;;;;;;2.78;1.55;;;37.60;49.40;;;;;;4918028;29;20230;-68
2022/05/14 12:57:51;;;;;;;7.93;1.58;;;38.60;49.30;;;;;;4917925;29;20118;-68
2022/05/14 13:00:18;;;;;;;3.13;1.63;;;38.90;48.30;;;;;;4917853;29;20153;-68
2022/05/14 13:02:50;;;;;;;14.68;2.67;;;;;;;;;;4917882;29;20047;-68
2022/05/14 13:05:26;;;;;;;4.07;1.70;;;38.60;49.10;;;;;;4917707;29;20020;-68
2022/05/14 13:08:02;;;;;;;11.45;1.90;;;37.50;48.10;;;;;;4917736;29;20036;-67
2022/05/14 13:10:30;;;;;;;4.80;2.03;;;;;;;;;;4917662;29;20028;-68
2022/05/14 13:13:00;;;;;;;6.90;1.70;;;37.80;48.10;;;;;;4917308;29;20434;-67
2022/05/14 13:15:45;;;;;;;6.75;1.60;;;38.70;47.70;;;;;;4917683;29;20040;-68
2022/05/14 13:18:24;;;;;;;4.10;1.60;;;38.80;46.80;;;;;;4917602;29;20099;-68
2022/05/14 13:21:16;;;;;;;5.57;1.73;;;;;;;;;;4917573;29;20032;-68
2022/05/14 13:23:52;;;;;;;3.38;1.50;;;;;;;;;;4915293;29;20506;-68
2022/05/14 13:26:31;;;;;;;8.10;1.70;;;36.50;48.50;;;;;;4917431;29;20466;-68
2022/05/14 13:29:30;;;;;;;2.75;1.67;;;;;;;;;;4917481;29;20028;-68
2022/05/14 13:32:25;;;;;;;2.42;1.33;;;33.10;51.30;;;;;;4877206;29;20114;-68
2022/05/14 13:37:37;;;;;;;2.78;1.75;;;34.70;51.90;;;;;;4877443;29;20044;-68